Time;durP1;ratioP1;P1;durP2;ratioP2;P2;SDS_P1;SDS_P2;PMS_P1;PMS_P2;Temp;Humidity;BMP_temperature;BMP_pressure;BME280_temperature;BME280_humidity;BME280_pressure;Samples;Min_cycle;Max_cycle;Signal;HPM_P1;HPM_P2
2021/05/08 00:00:14;;;;;;;36.10;21.90;;;2.90;99.90;;;;;;5114832;28;20384;-64
2021/05/08 00:02:39;;;;;;;36.42;23.30;;;2.80;99.90;;;;;;5115362;28;20027;-64
2021/05/08 00:05:06;;;;;;;31.83;21.13;;;2.80;99.90;;;;;;5115009;28;20027;-64
2021/05/08 00:07:31;;;;;;;33.80;21.20;;;2.80;99.90;;;;;;5115194;28;20027;-64
2021/05/08 00:09:57;;;;;;;30.25;20.73;;;2.70;99.90;;;;;;5114935;28;20140;-64
2021/05/08 00:12:22;;;;;;;34.22;21.08;;;2.70;99.90;;;;;;5114899;28;20432;-64
2021/05/08 00:14:48;;;;;;;32.10;20.95;;;2.70;99.90;;;;;;5114868;28;20103;-64
2021/05/08 00:17:13;;;;;;;36.63;22.65;;;2.60;99.90;;;;;;5115094;28;20469;-64
2021/05/08 00:19:39;;;;;;;36.95;20.95;;;2.60;99.90;;;;;;5114717;28;20106;-64
2021/05/08 00:22:04;;;;;;;38.05;23.65;;;2.50;99.90;;;;;;5114693;28;20031;-64
2021/05/08 00:24:30;;;;;;;38.17;22.67;;;2.60;99.90;;;;;;5114883;28;20032;-64
2021/05/08 00:26:55;;;;;;;33.40;20.95;;;2.60;99.90;;;;;;5114789;28;20034;-64
2021/05/08 00:29:21;;;;;;;35.40;21.50;;;2.60;99.90;;;;;;5114554;28;20484;-64
2021/05/08 00:31:46;;;;;;;39.55;22.42;;;2.60;99.90;;;;;;5114861;28;20055;-64
2021/05/08 00:34:12;;;;;;;37.63;21.63;;;2.50;99.90;;;;;;5114033;28;20354;-64
2021/05/08 00:36:38;;;;;;;35.55;22.48;;;2.50;99.90;;;;;;5114471;28;20373;-64
2021/05/08 00:39:04;;;;;;;34.95;21.08;;;2.40;99.90;;;;;;5114131;28;20058;-64
2021/05/08 00:41:30;;;;;;;34.45;22.20;;;2.40;99.90;;;;;;5114409;28;20354;-64
2021/05/08 00:43:57;;;;;;;36.60;24.38;;;2.30;99.90;;;;;;5113206;28;20027;-64
2021/05/08 00:46:25;;;;;;;37.70;23.63;;;2.30;99.90;;;;;;5114136;28;20044;-64
2021/05/08 00:48:52;;;;;;;39.40;22.65;;;2.30;99.90;;;;;;5114301;28;20470;-64
2021/05/08 00:51:18;;;;;;;39.47;23.98;;;2.20;99.90;;;;;;5114631;28;20023;-64
2021/05/08 00:53:44;;;;;;;43.50;24.73;;;2.20;99.90;;;;;;5114044;28;20024;-64
2021/05/08 00:56:10;;;;;;;47.00;25.70;;;2.20;99.90;;;;;;5114303;28;20512;-63
2021/05/08 00:58:36;;;;;;;41.72;24.25;;;2.20;99.90;;;;;;5114539;28;20080;-64
2021/05/08 01:01:02;;;;;;;41.80;23.75;;;2.20;99.90;;;;;;5114515;28;20107;-64
2021/05/08 01:03:27;;;;;;;44.97;25.80;;;2.10;99.90;;;;;;5114464;28;20172;-64
2021/05/08 01:05:53;;;;;;;45.38;25.83;;;2.10;99.90;;;;;;5114194;28;20110;-64
2021/05/08 01:08:19;;;;;;;41.97;24.42;;;2.10;99.90;;;;;;5114050;28;20031;-64
2021/05/08 01:10:45;;;;;;;47.95;24.98;;;2.10;99.90;;;;;;5114442;28;20526;-64
2021/05/08 01:13:11;;;;;;;47.80;26.27;;;2.10;99.90;;;;;;5114100;28;20024;-64
2021/05/08 01:15:37;;;;;;;44.25;25.58;;;2.00;99.90;;;;;;5114142;28;20476;-64
2021/05/08 01:18:03;;;;;;;38.33;24.20;;;2.00;99.90;;;;;;5114408;28;20428;-64
2021/05/08 01:20:29;;;;;;;43.67;26.52;;;2.00;99.90;;;;;;5114358;28;20111;-64
2021/05/08 01:22:55;;;;;;;46.65;25.45;;;1.90;99.90;;;;;;5112885;28;20067;-64
2021/05/08 01:25:23;;;;;;;45.17;26.30;;;1.90;99.90;;;;;;5113982;28;20384;-64
2021/05/08 01:27:51;;;;;;;48.28;25.83;;;1.90;99.90;;;;;;5114217;28;20028;-64
2021/05/08 01:30:21;;;;;;;48.22;26.75;;;1.80;99.90;;;;;;5114244;28;20065;-64
2021/05/08 01:32:47;;;;;;;43.58;26.27;;;1.80;99.90;;;;;;5113954;28;20027;-64
2021/05/08 01:35:13;;;;;;;45.50;26.05;;;1.80;99.90;;;;;;5113922;28;20530;-64
2021/05/08 01:37:39;;;;;;;52.40;28.48;;;1.80;99.90;;;;;;5112715;28;20054;-64
2021/05/08 01:40:08;;;;;;;48.47;28.80;;;1.70;99.90;;;;;;5112702;28;20035;-64
2021/05/08 01:42:34;;;;;;;49.05;27.05;;;1.70;99.90;;;;;;5113898;28;20063;-64
2021/05/08 01:45:18;;;;;;;51.45;28.05;;;1.70;99.90;;;;;;5113824;28;20384;-64
2021/05/08 01:47:44;;;;;;;47.55;26.98;;;1.70;99.90;;;;;;5117210;28;20054;-64
2021/05/08 01:50:12;;;;;;;54.03;28.40;;;1.60;99.90;;;;;;5117985;28;20099;-64
2021/05/08 01:52:39;;;;;;;48.97;27.73;;;1.60;99.90;;;;;;5117899;28;20104;-64
2021/05/08 01:55:08;;;;;;;47.47;28.52;;;1.60;99.90;;;;;;5117628;28;20047;-64
2021/05/08 01:57:42;;;;;;;47.13;27.63;;;1.50;99.90;;;;;;5117539;28;20047;-64
2021/05/08 02:00:11;;;;;;;50.42;29.50;;;1.50;99.90;;;;;;5117493;28;20469;-64
2021/05/08 02:02:37;;;;;;;55.85;29.73;;;1.50;99.90;;;;;;5117453;28;20039;-64
2021/05/08 02:05:05;;;;;;;51.00;29.85;;;1.50;99.90;;;;;;5117411;28;20077;-64
2021/05/08 02:07:31;;;;;;;47.80;28.10;;;1.50;99.90;;;;;;5117254;28;20102;-64
2021/05/08 02:09:56;;;;;;;52.80;29.52;;;1.40;99.90;;;;;;5117576;28;20499;-64
2021/05/08 02:12:28;;;;;;;54.15;29.00;;;1.30;99.90;;;;;;5117542;28;20111;-64
2021/05/08 02:14:53;;;;;;;52.58;28.92;;;1.30;99.90;;;;;;5117517;28;20015;-64
2021/05/08 02:17:19;;;;;;;52.47;28.92;;;1.30;99.90;;;;;;5117416;28;20038;-64
2021/05/08 02:19:44;;;;;;;55.40;29.45;;;1.30;99.90;;;;;;5117096;28;20380;-64
2021/05/08 02:22:10;;;;;;;51.13;28.63;;;1.30;99.90;;;;;;5117364;28;20031;-64
2021/05/08 02:24:35;;;;;;;54.28;30.52;;;1.30;99.90;;;;;;5117329;28;20028;-63
2021/05/08 02:27:01;;;;;;;56.90;29.73;;;1.30;99.90;;;;;;5116913;28;20373;-63
2021/05/08 02:29:26;;;;;;;54.38;29.58;;;1.30;99.90;;;;;;5116913;28;20042;-63
2021/05/08 02:31:51;;;;;;;58.22;29.48;;;1.30;99.90;;;;;;5117717;28;20028;-63
2021/05/08 02:34:17;;;;;;;49.97;27.90;;;1.30;99.90;;;;;;5116823;28;20361;-64
2021/05/08 02:36:42;;;;;;;52.45;29.50;;;1.30;99.90;;;;;;5117055;28;20073;-64
2021/05/08 02:39:08;;;;;;;50.75;28.95;;;1.20;99.90;;;;;;5115199;28;20028;-64
2021/05/08 02:41:33;;;;;;;53.80;29.15;;;1.20;99.90;;;;;;5116671;28;20102;-64
2021/05/08 02:43:59;;;;;;;55.17;29.48;;;1.20;99.90;;;;;;5116594;28;20050;-64
2021/05/08 02:46:24;;;;;;;51.63;29.73;;;1.20;99.90;;;;;;5116538;28;20519;-64
2021/05/08 02:48:50;;;;;;;51.47;28.92;;;1.20;99.90;;;;;;5116469;28;20057;-64
2021/05/08 02:51:15;;;;;;;50.92;27.80;;;1.20;99.90;;;;;;5116497;28;20027;-64
2021/05/08 02:53:41;;;;;;;55.22;29.75;;;1.10;99.90;;;;;;5116728;28;20028;-64
2021/05/08 02:56:06;;;;;;;55.42;30.38;;;1.00;99.90;;;;;;5116494;28;20023;-64
2021/05/08 02:58:32;;;;;;;52.45;29.42;;;1.00;99.90;;;;;;5115802;28;20020;-64
2021/05/08 03:00:57;;;;;;;55.40;30.88;;;1.00;99.90;;;;;;5116313;28;20027;-64
2021/05/08 03:03:23;;;;;;;58.60;30.00;;;1.00;99.90;;;;;;5116531;28;20428;-64
2021/05/08 03:05:49;;;;;;;53.42;29.73;;;1.00;99.90;;;;;;5115901;28;20032;-64
2021/05/08 03:08:15;;;;;;;53.85;29.88;;;1.00;99.90;;;;;;5116421;28;20028;-64
2021/05/08 03:10:40;;;;;;;57.00;30.40;;;1.00;99.90;;;;;;5116142;28;20388;-64
2021/05/08 03:13:06;;;;;;;62.92;30.83;;;1.00;99.90;;;;;;5116130;28;20026;-64
2021/05/08 03:15:31;;;;;;;57.55;31.63;;;0.90;99.90;;;;;;5116295;28;20028;-63
2021/05/08 03:17:57;;;;;;;57.63;30.55;;;0.90;99.90;;;;;;5115967;28;20027;-64
2021/05/08 03:20:23;;;;;;;57.88;30.13;;;0.90;99.90;;;;;;5114740;28;20024;-64
2021/05/08 03:22:49;;;;;;;54.67;29.15;;;0.90;99.90;;;;;;5116150;28;20054;-64
2021/05/08 03:25:15;;;;;;;60.95;33.28;;;0.80;99.90;;;;;;5115886;28;20024;-64
2021/05/08 03:27:41;;;;;;;64.07;33.53;;;0.80;99.90;;;;;;5114140;28;20047;-64
2021/05/08 03:30:08;;;;;;;60.03;32.03;;;0.90;99.90;;;;;;5115992;28;20031;-64
2021/05/08 03:32:33;;;;;;;59.22;31.23;;;0.90;99.90;;;;;;5115721;27;20016;-64
2021/05/08 03:34:59;;;;;;;62.03;34.20;;;0.90;99.90;;;;;;5115607;28;20140;-64
2021/05/08 03:37:24;;;;;;;60.40;32.20;;;0.80;99.90;;;;;;5115559;28;20023;-64
2021/05/08 03:39:50;;;;;;;62.78;34.60;;;0.90;99.90;;;;;;5115488;28;20034;-64
2021/05/08 03:42:15;;;;;;;58.55;32.58;;;0.90;99.90;;;;;;5115214;28;20023;-63
2021/05/08 03:44:41;;;;;;;66.38;34.33;;;0.80;99.90;;;;;;5115681;28;20032;-64
2021/05/08 03:47:09;;;;;;;65.32;34.47;;;0.80;99.90;;;;;;5115083;28;20055;-64
2021/05/08 03:49:35;;;;;;;62.63;34.17;;;0.90;99.90;;;;;;5115368;28;20389;-64
2021/05/08 03:52:04;;;;;;;64.30;35.20;;;0.90;99.90;;;;;;5115589;28;20594;-64
2021/05/08 03:54:30;;;;;;;68.15;35.67;;;0.90;99.90;;;;;;5115240;28;20051;-64
2021/05/08 03:56:58;;;;;;;67.13;35.17;;;1.00;99.90;;;;;;5115226;28;20407;-64
2021/05/08 03:59:24;;;;;;;65.78;35.72;;;1.10;99.90;;;;;;5115163;28;20482;-64
2021/05/08 04:01:49;;;;;;;74.43;37.97;;;1.20;99.90;;;;;;5115392;28;20107;-64
2021/05/08 04:04:15;;;;;;;77.25;36.90;;;1.20;99.90;;;;;;5115076;28;20051;-64
2021/05/08 04:06:41;;;;;;;69.55;37.35;;;1.30;99.90;;;;;;5114993;28;20023;-63
2021/05/08 04:09:09;;;;;;;65.72;35.10;;;1.40;99.90;;;;;;5114140;28;20034;-64
2021/05/08 04:11:35;;;;;;;62.67;36.35;;;1.50;99.90;;;;;;5115241;28;20059;-64
2021/05/08 04:14:01;;;;;;;63.83;35.10;;;1.60;99.90;;;;;;5115216;28;20103;-64
2021/05/08 04:16:26;;;;;;;60.03;33.10;;;1.70;99.90;;;;;;5113691;28;20518;-64
2021/05/08 04:18:52;;;;;;;61.78;33.63;;;1.70;99.90;;;;;;5114980;28;20031;-64
2021/05/08 04:21:18;;;;;;;53.03;30.27;;;1.70;99.90;;;;;;5115054;28;20027;-64
2021/05/08 04:23:43;;;;;;;53.58;31.98;;;1.80;99.90;;;;;;5114736;28;20034;-64
2021/05/08 04:26:09;;;;;;;50.95;30.45;;;1.90;99.90;;;;;;5114672;28;20023;-64
2021/05/08 04:28:34;;;;;;;58.22;32.45;;;2.00;99.90;;;;;;5114860;28;20036;-64
2021/05/08 04:31:00;;;;;;;47.10;30.05;;;2.30;99.90;;;;;;5114889;28;20024;-64
2021/05/08 04:33:25;;;;;;;49.30;29.85;;;2.50;99.90;;;;;;5114872;28;20381;-64
2021/05/08 04:35:51;;;;;;;47.50;27.88;;;2.80;99.90;;;;;;5114790;28;20476;-64
2021/05/08 04:38:16;;;;;;;44.70;26.95;;;3.00;99.90;;;;;;5114523;28;20104;-64
2021/05/08 04:40:42;;;;;;;46.92;26.90;;;3.10;99.90;;;;;;5114728;28;20024;-64
2021/05/08 04:43:08;;;;;;;38.65;25.33;;;3.30;99.90;;;;;;5114424;28;20023;-64
2021/05/08 04:45:34;;;;;;;37.00;23.40;;;3.60;99.90;;;;;;5114463;28;20096;-64
2021/05/08 04:47:59;;;;;;;33.90;22.98;;;3.90;99.90;;;;;;5113916;28;20488;-64
2021/05/08 04:50:26;;;;;;;35.78;22.65;;;4.10;99.90;;;;;;5114374;28;20023;-64
2021/05/08 04:52:52;;;;;;;31.83;19.45;;;4.60;99.90;;;;;;5114364;28;20031;-64
2021/05/08 04:55:19;;;;;;;27.73;19.63;;;5.20;99.90;;;;;;5114302;28;20095;-65
2021/05/08 04:57:45;;;;;;;29.65;19.35;;;5.50;99.90;;;;;;5114295;28;20468;-65
2021/05/08 05:00:12;;;;;;;28.13;18.50;;;5.30;99.90;;;;;;5114211;28;20031;-63
2021/05/08 05:02:40;;;;;;;25.25;19.02;;;5.50;99.90;;;;;;5114244;28;20480;-63
2021/05/08 05:05:06;;;;;;;26.85;19.08;;;5.50;99.90;;;;;;5114516;28;20034;-64
2021/05/08 05:07:31;;;;;;;27.05;18.85;;;5.40;99.90;;;;;;5114086;28;20051;-64
2021/05/08 05:09:57;;;;;;;28.42;20.65;;;5.30;99.90;;;;;;5114137;28;20128;-64
2021/05/08 05:12:23;;;;;;;29.17;19.88;;;5.30;99.90;;;;;;5114164;28;20407;-64
2021/05/08 05:14:48;;;;;;;29.75;19.88;;;5.20;99.90;;;;;;5112571;28;20112;-64
2021/05/08 05:17:14;;;;;;;29.80;20.35;;;5.30;99.90;;;;;;5114087;28;20015;-64
2021/05/08 05:19:39;;;;;;;28.50;20.05;;;5.20;99.90;;;;;;5114640;28;20384;-64
2021/05/08 05:22:06;;;;;;;29.27;20.08;;;5.40;99.90;;;;;;5118524;28;20030;-63
2021/05/08 05:24:31;;;;;;;25.40;19.23;;;5.20;99.90;;;;;;5118494;28;20106;-64
2021/05/08 05:26:57;;;;;;;26.60;19.35;;;5.50;99.90;;;;;;5118116;28;20066;-64
2021/05/08 05:29:22;;;;;;;26.45;18.95;;;6.00;99.90;;;;;;5118015;28;20024;-65
2021/05/08 05:31:48;;;;;;;24.55;18.23;;;6.40;99.90;;;;;;5117751;28;20031;-64
2021/05/08 05:34:13;;;;;;;22.77;17.13;;;7.30;99.90;;;;;;5117700;28;20019;-65
2021/05/08 05:36:39;;;;;;;21.08;17.33;;;7.80;99.90;;;;;;5117938;28;20020;-65
2021/05/08 05:39:05;;;;;;;24.70;17.73;;;7.60;99.90;;;;;;5118244;28;20038;-65
2021/05/08 05:41:32;;;;;;;24.27;16.75;;;7.40;99.90;;;;;;5117852;28;20028;-65
2021/05/08 05:43:58;;;;;;;22.27;18.23;;;7.50;99.90;;;;;;5117813;28;20039;-65
2021/05/08 05:46:23;;;;;;;22.13;15.98;;;7.50;99.90;;;;;;5117771;28;20036;-65
2021/05/08 05:48:49;;;;;;;22.17;17.90;;;7.40;99.90;;;;;;5117633;28;20075;-65
2021/05/08 05:51:15;;;;;;;23.60;17.88;;;7.20;99.90;;;;;;5117667;28;20065;-65
2021/05/08 05:53:41;;;;;;;22.50;17.05;;;7.10;99.90;;;;;;5117605;28;20469;-64
2021/05/08 05:56:06;;;;;;;23.17;17.55;;;7.20;99.90;;;;;;5118392;28;20111;-65
2021/05/08 05:58:32;;;;;;;21.67;16.77;;;7.40;99.90;;;;;;5117502;28;20103;-65
2021/05/08 06:00:57;;;;;;;20.45;16.60;;;8.10;99.90;;;;;;5117771;28;20035;-65
2021/05/08 06:03:24;;;;;;;24.83;17.30;;;8.20;99.90;;;;;;5117434;28;20031;-65
2021/05/08 06:05:49;;;;;;;19.77;15.05;;;8.40;99.90;;;;;;5117468;28;20030;-65
2021/05/08 06:08:15;;;;;;;19.17;15.55;;;9.40;99.90;;;;;;5117039;28;20051;-65
2021/05/08 06:10:40;;;;;;;18.63;14.15;;;10.30;99.90;;;;;;5115800;28;20464;-64
2021/05/08 06:13:06;;;;;;;21.50;15.68;;;10.30;99.90;;;;;;5117529;28;20055;-65
2021/05/08 06:15:31;;;;;;;18.75;14.82;;;9.90;99.90;;;;;;5117502;28;20461;-65
2021/05/08 06:17:57;;;;;;;19.73;15.98;;;9.50;99.90;;;;;;5116004;28;20417;-64
2021/05/08 06:20:23;;;;;;;23.45;15.73;;;9.30;99.90;;;;;;5117138;28;20480;-64
2021/05/08 06:22:49;;;;;;;19.20;15.10;;;9.90;99.90;;;;;;5117082;28;20031;-64
2021/05/08 06:25:14;;;;;;;18.65;13.98;;;11.60;99.90;;;;;;5117028;28;20034;-65
2021/05/08 06:27:40;;;;;;;15.77;14.05;;;12.60;99.90;;;;;;5117216;28;20367;-65
2021/05/08 06:30:07;;;;;;;16.80;12.95;;;13.00;99.90;;;;;;5117274;28;20019;-65
2021/05/08 06:32:32;;;;;;;15.68;13.20;;;14.10;99.90;;;;;;5116339;28;20019;-65
2021/05/08 06:34:58;;;;;;;14.48;12.98;;;15.00;99.90;;;;;;5117127;28;20360;-65
2021/05/08 06:37:23;;;;;;;14.52;12.70;;;14.90;99.90;;;;;;5116788;28;20016;-66
2021/05/08 06:39:49;;;;;;;15.13;13.15;;;14.30;99.90;;;;;;5116748;28;20376;-65
2021/05/08 06:42:14;;;;;;;14.85;12.70;;;14.30;99.90;;;;;;5116685;28;20028;-65
2021/05/08 06:44:40;;;;;;;17.00;13.02;;;14.90;99.90;;;;;;5117474;28;20103;-65
2021/05/08 06:47:05;;;;;;;14.95;13.30;;;15.30;99.80;;;;;;5116392;28;20492;-65
2021/05/08 06:49:31;;;;;;;13.82;11.98;;;15.50;96.70;;;;;;5116542;28;20023;-65
2021/05/08 06:51:56;;;;;;;16.00;13.98;;;16.10;95.40;;;;;;5116784;28;20031;-65
2021/05/08 06:54:22;;;;;;;15.15;13.20;;;15.80;94.60;;;;;;5116461;28;20023;-66
2021/05/08 06:56:47;;;;;;;13.13;11.70;;;15.60;96.00;;;;;;5116674;28;20089;-66
2021/05/08 06:59:13;;;;;;;13.75;12.25;;;16.00;96.90;;;;;;5116325;28;20047;-65
2021/05/08 07:01:38;;;;;;;15.07;13.02;;;16.70;95.30;;;;;;5115451;28;20016;-66
2021/05/08 07:04:04;;;;;;;19.75;14.27;;;16.80;92.30;;;;;;5116560;28;20484;-66
2021/05/08 07:06:30;;;;;;;15.50;13.02;;;16.60;94.10;;;;;;5116322;28;20016;-66
2021/05/08 07:08:55;;;;;;;14.43;12.93;;;17.00;91.40;;;;;;5097568;28;20023;-66
2021/05/08 07:11:21;;;;;;;16.48;13.55;;;17.10;91.10;;;;;;5116099;28;20026;-66
2021/05/08 07:13:47;;;;;;;15.40;12.98;;;17.10;85.20;;;;;;5116062;28;20023;-66
2021/05/08 07:16:12;;;;;;;15.75;14.10;;;16.70;88.10;;;;;;5116303;28;20453;-66
2021/05/08 07:18:38;;;;;;;14.00;11.90;;;16.80;89.60;;;;;;5115642;28;20084;-66
2021/05/08 07:21:04;;;;;;;16.27;13.43;;;16.80;90.80;;;;;;5116186;28;20032;-66
2021/05/08 07:23:29;;;;;;;14.32;12.73;;;16.00;92.50;;;;;;5115913;28;20025;-66
2021/05/08 07:25:55;;;;;;;15.25;12.40;;;16.30;90.00;;;;;;5116100;28;20088;-66
2021/05/08 07:28:24;;;;;;;15.77;12.25;;;16.20;90.40;;;;;;5115894;28;20035;-66
2021/05/08 07:30:56;;;;;;;14.45;12.65;;;16.40;92.60;;;;;;5115743;28;20098;-66
2021/05/08 07:33:23;;;;;;;16.77;13.25;;;16.40;91.40;;;;;;5115684;28;20023;-66
2021/05/08 07:35:50;;;;;;;17.08;12.50;;;16.60;92.40;;;;;;5115572;28;20027;-66
2021/05/08 07:38:17;;;;;;;19.10;12.55;;;16.00;88.60;;;;;;5115579;28;20023;-65
2021/05/08 07:40:42;;;;;;;15.07;11.88;;;16.20;90.50;;;;;;5115812;28;20020;-65
2021/05/08 07:43:09;;;;;;;13.93;11.52;;;16.50;90.50;;;;;;5115762;28;20043;-66
2021/05/08 07:45:35;;;;;;;14.85;12.15;;;16.50;88.20;;;;;;5114258;28;20027;-66
2021/05/08 07:48:01;;;;;;;15.65;12.18;;;16.40;85.30;;;;;;5114938;28;20063;-66
2021/05/08 07:50:28;;;;;;;14.07;12.07;;;16.20;89.60;;;;;;5115330;28;20116;-65
2021/05/08 07:52:54;;;;;;;15.80;12.77;;;16.10;91.50;;;;;;5115299;28;20461;-65
2021/05/08 07:55:20;;;;;;;14.07;12.20;;;16.20;92.20;;;;;;5115280;28;20102;-65
2021/05/08 07:57:45;;;;;;;15.77;11.90;;;16.20;92.00;;;;;;5115241;28;20047;-66
2021/05/08 08:00:13;;;;;;;15.80;11.77;;;15.90;91.30;;;;;;5115451;28;20487;-65
2021/05/08 08:02:39;;;;;;;15.10;11.77;;;15.50;93.20;;;;;;5115897;28;20024;-65
2021/05/08 08:05:06;;;;;;;13.60;11.73;;;15.40;93.60;;;;;;5115135;28;20457;-66
2021/05/08 08:07:32;;;;;;;13.77;10.73;;;15.40;95.80;;;;;;5114961;28;20031;-66
2021/05/08 08:09:58;;;;;;;12.90;9.75;;;15.10;91.80;;;;;;5115254;28;20461;-65
2021/05/08 08:12:23;;;;;;;11.65;9.13;;;15.10;93.00;;;;;;5115234;28;20418;-66
2021/05/08 08:14:49;;;;;;;12.50;9.50;;;15.10;92.70;;;;;;5114897;28;20376;-66
2021/05/08 08:17:15;;;;;;;12.15;9.55;;;15.30;90.60;;;;;;5114864;28;20038;-66
2021/05/08 08:19:41;;;;;;;14.43;10.18;;;15.50;93.00;;;;;;5114534;28;20024;-66
2021/05/08 08:22:06;;;;;;;14.77;10.30;;;15.60;90.90;;;;;;5113864;28;20039;-66
2021/05/08 08:24:32;;;;;;;11.27;9.98;;;15.90;93.80;;;;;;5114003;28;20032;-66
2021/05/08 08:26:57;;;;;;;13.75;10.00;;;16.10;91.30;;;;;;5114958;28;20095;-66
2021/05/08 08:29:23;;;;;;;12.00;10.02;;;16.30;90.70;;;;;;5114837;28;20479;-66
2021/05/08 08:31:49;;;;;;;12.07;9.85;;;16.60;85.50;;;;;;5113058;28;20141;-66
2021/05/08 08:34:14;;;;;;;11.55;9.40;;;16.90;87.70;;;;;;5114860;28;20021;-66
2021/05/08 08:36:40;;;;;;;12.85;9.63;;;17.00;85.90;;;;;;5114794;28;20112;-66
2021/05/08 08:39:06;;;;;;;12.35;8.57;;;17.10;82.10;;;;;;5114187;28;20076;-66
2021/05/08 08:41:32;;;;;;;12.23;8.68;;;16.90;87.80;;;;;;5114464;28;20054;-66
2021/05/08 08:43:58;;;;;;;9.57;7.68;;;16.70;79.60;;;;;;5114737;28;20027;-65
2021/05/08 08:46:24;;;;;;;10.18;7.25;;;16.60;75.80;;;;;;5114377;28;20127;-66
2021/05/08 08:48:50;;;;;;;11.68;7.97;;;16.80;76.60;;;;;;5114561;28;20484;-65
2021/05/08 08:51:16;;;;;;;9.18;7.85;;;17.00;78.20;;;;;;5114664;28;20046;-66
2021/05/08 08:53:43;;;;;;;9.60;7.55;;;17.40;76.40;;;;;;5114021;28;20055;-66
2021/05/08 08:56:10;;;;;;;7.95;5.60;;;18.00;66.10;;;;;;5113816;28;20357;-66
2021/05/08 08:58:39;;;;;;;6.95;5.60;;;17.60;59.80;;;;;;5114232;28;20024;-66
2021/05/08 09:01:06;;;;;;;8.07;5.60;;;17.60;56.90;;;;;;5114264;28;20384;-65
2021/05/08 09:03:32;;;;;;;8.35;5.93;;;17.50;59.50;;;;;;5114193;28;20030;-65
2021/05/08 09:06:00;;;;;;;10.38;6.30;;;17.60;60.00;;;;;;5114117;28;20076;-65
2021/05/08 09:08:25;;;;;;;7.13;4.75;;;17.70;62.30;;;;;;5114105;28;20077;-65
2021/05/08 09:10:52;;;;;;;6.43;4.07;;;16.70;56.80;;;;;;5114087;28;20465;-65
2021/05/08 09:13:20;;;;;;;6.53;4.65;;;16.10;56.10;;;;;;5114400;28;20023;-65
2021/05/08 09:15:48;;;;;;;6.75;4.38;;;16.30;57.40;;;;;;5114420;28;20027;-65
2021/05/08 09:18:34;;;;;;;6.93;4.43;;;16.50;58.80;;;;;;5114365;28;20020;-65
2021/05/08 09:20:59;;;;;;;9.15;4.05;;;16.30;57.20;;;;;;5114023;28;20020;-65
2021/05/08 09:23:30;;;;;;;7.88;3.88;;;16.20;56.30;;;;;;5113740;28;20031;-65
2021/05/08 09:26:13;;;;;;;7.93;4.22;;;16.20;57.20;;;;;;5113994;28;20350;-66
2021/05/08 09:28:41;;;;;;;7.25;4.13;;;16.20;56.70;;;;;;5113862;28;20084;-65
2021/05/08 09:31:13;;;;;;;5.82;4.10;;;16.10;56.20;;;;;;5114150;28;20016;-65
2021/05/08 09:33:38;;;;;;;6.18;3.63;;;16.10;56.90;;;;;;5113696;28;20015;-65
2021/05/08 09:36:07;;;;;;;6.20;3.88;;;16.30;56.70;;;;;;5113851;28;20103;-65
2021/05/08 09:38:36;;;;;;;9.10;4.95;;;16.10;55.10;;;;;;5113875;28;20080;-65
2021/05/08 09:41:03;;;;;;;5.90;3.75;;;16.20;57.30;;;;;;5113877;28;20024;-65
2021/05/08 09:43:29;;;;;;;8.60;3.92;;;16.10;56.30;;;;;;5114021;28;20015;-65
2021/05/08 09:45:56;;;;;;;6.00;3.42;;;16.10;54.90;;;;;;5113810;28;20020;-65
2021/05/08 09:48:26;;;;;;;7.25;3.55;;;15.90;56.00;;;;;;5113281;28;20096;-65
2021/05/08 09:50:53;;;;;;;6.85;3.42;;;16.20;57.90;;;;;;5113825;28;20024;-65
2021/05/08 09:53:33;;;;;;;4.25;3.20;;;16.50;55.90;;;;;;5113807;28;20027;-65
2021/05/08 09:55:59;;;;;;;5.07;2.53;;;16.50;55.20;;;;;;5113712;28;20085;-65
2021/05/08 09:58:26;;;;;;;9.60;3.30;;;16.30;54.20;;;;;;5113723;28;20469;-65
2021/05/08 10:00:53;;;;;;;6.68;3.10;;;15.70;53.60;;;;;;5114020;28;20020;-65
2021/05/08 10:03:20;;;;;;;6.78;3.42;;;15.60;55.20;;;;;;5112506;28;20028;-65
2021/05/08 10:08:40;;;;;;;6.22;3.20;;;16.00;56.00;;;;;;5112328;27;20352;-65
2021/05/08 10:11:05;;;;;;;6.10;3.08;;;16.60;53.40;;;;;;5111943;28;20023;-66
2021/05/08 10:13:47;;;;;;;4.13;3.22;;;16.90;52.60;;;;;;5111329;28;20031;-66
2021/05/08 10:16:13;;;;;;;5.97;3.63;;;16.90;53.40;;;;;;5111847;28;20411;-65
2021/05/08 10:18:39;;;;;;;5.50;3.10;;;17.30;52.20;;;;;;5110346;28;20024;-66
2021/05/08 10:21:06;;;;;;;6.70;3.28;;;17.30;54.50;;;;;;5111416;28;20023;-65
2021/05/08 10:23:33;;;;;;;8.52;3.25;;;18.00;51.50;;;;;;5110187;28;20035;-65
2021/05/08 10:26:02;;;;;;;4.90;3.10;;;18.30;50.60;;;;;;5111381;28;20024;-66
2021/05/08 10:28:28;;;;;;;6.32;3.67;;;18.20;50.30;;;;;;5111507;28;20107;-66
2021/05/08 10:30:53;;;;;;;7.38;3.25;;;18.00;51.50;;;;;;5111553;28;20065;-66
2021/05/08 10:33:21;;;;;;;4.10;2.83;;;17.90;51.00;;;;;;5111544;28;20024;-65
2021/05/08 10:35:51;;;;;;;7.05;3.53;;;18.00;48.60;;;;;;5110204;28;20020;-65
2021/05/08 10:38:26;;;;;;;5.55;3.22;;;17.80;48.80;;;;;;5111408;28;20027;-65
2021/05/08 10:41:11;;;;;;;5.28;3.03;;;17.80;48.90;;;;;;5111063;28;20047;-66
2021/05/08 10:46:19;;;;;;;7.15;3.05;;;17.60;47.90;;;;;;5133337;27;647728;-66
2021/05/08 10:51:59;;;;;;;4.63;2.50;;;17.00;49.20;;;;;;5112290;27;20896;-64
2021/05/08 10:54:45;;;;;;;4.55;2.78;;;17.00;47.90;;;;;;5111645;28;20476;-64
2021/05/08 10:57:29;;;;;;;6.95;3.10;;;16.90;49.10;;;;;;5111343;28;20020;-64
2021/05/08 11:05:33;;;;;;;6.72;2.60;;;17.10;47.90;;;;;;5112222;27;20348;-65
2021/05/08 11:07:59;;;;;;;6.90;2.90;;;16.80;49.20;;;;;;5111634;28;20031;-65
2021/05/08 11:10:38;;;;;;;5.07;2.80;;;16.80;49.50;;;;;;5111901;28;20020;-65
2021/05/08 11:13:09;;;;;;;4.50;2.95;;;16.60;46.80;;;;;;5110355;28;20024;-65
2021/05/08 11:18:39;;;;;;;4.53;2.20;;;16.70;47.40;;;;;;5112254;27;20355;-65
2021/05/08 11:23:51;;;;;;;5.80;2.47;;;17.10;47.80;;;;;;5112271;27;20400;-65
2021/05/08 11:29:25;;;;;;;6.43;2.58;;;16.90;47.40;;;;;;5112276;27;20343;-64
2021/05/08 11:31:53;;;;;;;5.93;2.83;;;17.20;50.10;;;;;;5111609;28;20034;-65
2021/05/08 11:34:20;;;;;;;7.30;2.85;;;17.20;49.20;;;;;;5112124;28;20052;-65
2021/05/08 11:37:09;;;;;;;5.50;2.45;;;17.00;49.30;;;;;;5111522;28;20027;-65
2021/05/08 11:39:39;;;;;;;7.30;2.55;;;17.10;49.80;;;;;;5111510;28;20521;-66
2021/05/08 11:42:16;;;;;;;4.25;2.65;;;16.80;46.80;;;;;;5111490;28;20020;-66
2021/05/08 11:44:45;;;;;;;4.65;2.58;;;16.80;48.00;;;;;;5111699;28;20030;-66
2021/05/08 11:47:48;;;;;;;6.10;2.58;;;16.90;49.80;;;;;;5111599;28;20500;-66
2021/05/08 11:50:09;;;;;;;5.75;2.67;;;17.00;49.40;;;;;;5110958;28;20077;-65
2021/05/08 11:52:40;;;;;;;4.18;2.20;;;17.30;50.80;;;;;;5111538;28;20020;-65
2021/05/08 11:55:17;;;;;;;6.47;2.90;;;17.50;49.40;;;;;;5111512;28;20365;-66
2021/05/08 11:57:54;;;;;;;6.32;2.65;;;17.30;48.10;;;;;;5111462;28;20034;-65
2021/05/08 12:00:22;;;;;;;8.15;2.70;;;17.30;48.90;;;;;;5110953;28;20020;-66
2021/05/08 12:02:49;;;;;;;5.70;2.70;;;17.20;48.60;;;;;;5111075;28;20525;-65
2021/05/08 12:05:15;;;;;;;3.10;2.30;;;17.10;48.70;;;;;;5111044;28;20067;-66
2021/05/08 12:07:43;;;;;;;6.18;2.50;;;17.30;48.90;;;;;;5109768;28;20023;-64
2021/05/08 12:10:19;;;;;;;5.45;2.40;;;17.30;47.90;;;;;;5110255;28;20081;-65
2021/05/08 12:12:52;;;;;;;5.43;2.88;;;17.00;48.20;;;;;;5110916;28;20028;-66
2021/05/08 12:15:30;;;;;;;4.38;2.55;;;16.80;47.80;;;;;;5110956;28;20099;-66
2021/05/08 12:17:57;;;;;;;2.92;2.55;;;16.70;46.80;;;;;;5110987;28;20023;-66
2021/05/08 12:20:26;;;;;;;6.75;2.78;;;16.40;47.70;;;;;;5109900;28;20030;-66
2021/05/08 12:22:55;;;;;;;5.07;2.55;;;16.40;50.20;;;;;;5110900;28;20373;-66
2021/05/08 12:25:22;;;;;;;3.17;1.92;;;16.50;48.80;;;;;;5109723;28;20024;-66
2021/05/08 12:27:48;;;;;;;5.15;2.95;;;16.80;49.60;;;;;;5109063;28;20063;-65
2021/05/08 12:30:15;;;;;;;4.90;2.30;;;16.90;48.10;;;;;;5110820;28;20121;-66
2021/05/08 12:32:56;;;;;;;3.95;2.63;;;17.10;46.90;;;;;;5110174;28;20012;-66
2021/05/08 12:35:25;;;;;;;8.90;3.42;;;17.20;48.00;;;;;;5110777;28;20031;-66
2021/05/08 12:37:51;;;;;;;5.00;2.40;;;17.20;47.40;;;;;;5110662;28;20020;-65
2021/05/08 12:40:28;;;;;;;5.05;2.30;;;17.00;47.40;;;;;;5096348;28;20074;-66
2021/05/08 12:42:54;;;;;;;6.10;3.05;;;17.00;48.20;;;;;;5096992;28;20123;-66
2021/05/08 12:45:20;;;;;;;5.95;3.30;;;17.10;47.80;;;;;;5096678;28;20059;-66
2021/05/08 12:47:46;;;;;;;3.47;2.70;;;16.80;48.10;;;;;;5096847;28;20102;-65
2021/05/08 12:50:26;;;;;;;8.10;3.10;;;16.50;51.20;;;;;;5095724;28;20028;-66
2021/05/08 12:53:09;;;;;;;5.45;2.67;;;16.40;50.50;;;;;;5096535;28;20513;-69
2021/05/08 12:55:36;;;;;;;5.07;2.58;;;16.40;49.70;;;;;;5096235;28;20091;-69
2021/05/08 12:58:14;;;;;;;3.65;2.45;;;16.60;50.00;;;;;;5095114;28;20028;-69
2021/05/08 13:00:43;;;;;;;7.03;3.00;;;16.60;48.50;;;;;;5096363;28;20059;-69